METAR Data
IDs: Format: Raw Decoded Include TAF

Data at: 1547 UTC 21 Sep 2018

KGNT 211535Z AUTO 35005KT 10SM CLR 13/06 A3035 RMK AO2 T01310056
KGNT 211515Z AUTO 34007KT 10SM CLR 12/05 A3035 RMK AO2 T01190048
KGNT 211455Z AUTO 31008KT 10SM CLR 11/04 A3035 RMK AO2 T01070043
KGNT 211435Z AUTO 32008KT 10SM CLR 09/04 A3034 RMK AO2 T00940044
KGNT 211415Z AUTO 30010KT 10SM CLR 09/04 A3034 RMK AO2 T00860041
KGNT 211355Z AUTO 31005KT 10SM CLR 08/05 A3033 RMK AO2 T00770051
KGNT 211335Z AUTO 31005KT 10SM CLR 06/05 A3032 RMK AO2 T00630046
KGNT 211315Z AUTO 31007KT 10SM CLR 06/04 A3032 RMK AO2 T00630043
KGNT 211255Z AUTO 30007KT 10SM CLR 07/04 A3031 RMK AO2 T00690042
KGNT 211235Z AUTO 30006KT 10SM CLR 07/05 A3030 RMK AO2 T00650045
KGNT 211215Z AUTO 31006KT 10SM CLR 07/05 A3030 RMK AO2 T00670045
KGNT 211155Z AUTO 30006KT 10SM CLR 06/05 A3029 RMK AO2 T00640046 10115 20064
KGNT 211135Z AUTO 30007KT 10SM CLR 07/05 A3029 RMK AO2 T00670046
KGNT 211115Z AUTO 31006KT 10SM CLR 07/05 A3028 RMK AO2 T00680048
KGNT 211055Z AUTO 31008KT 10SM CLR 07/05 A3028 RMK AO2 T00730050
KGNT 211035Z AUTO 30008KT 10SM CLR 08/05 A3027 RMK AO2 T00770052
KGNT 211015Z AUTO 30011KT 10SM CLR 07/05 A3027 RMK AO2 T00730053
KGNT 210955Z AUTO 30011KT 10SM CLR 08/05 A3026 RMK AO2 T00800053
KGNT 210935Z AUTO 31009KT 10SM CLR 08/06 A3026 RMK AO2 T00840055
KGNT 210915Z AUTO 30012G17KT 10SM CLR 09/06 A3026 RMK AO2 T00860056
KGNT 210855Z AUTO 31009KT 10SM CLR 08/06 A3026 RMK AO2 T00780059
KGNT 210835Z AUTO 30012G17KT 10SM CLR 08/06 A3026 RMK AO2 T00820060
KGNT 210815Z AUTO 30012G16KT 10SM CLR 09/06 A3025 RMK AO2 T00900059
KGNT 210755Z AUTO 30014KT 10SM CLR 10/06 A3024 RMK AO2 T00960059
KGNT 210735Z AUTO 31014KT 10SM CLR 10/06 A3024 RMK AO2 T01000063
KGNT 210715Z AUTO 29004KT 10SM CLR 10/07 A3024 RMK AO2 T00950072
KGNT 210655Z AUTO 31007KT 10SM CLR 10/07 A3024 RMK AO2 T01010066 402300100
KGNT 210635Z AUTO 02003KT 10SM CLR 11/06 A3024 RMK AO2 T01100056
KGNT 210615Z AUTO 34009G16KT 10SM CLR 11/06 A3023 RMK AO2 T01070059
KGNT 210555Z AUTO 00000KT 10SM CLR 12/05 A3024 RMK AO2 T01180051 10223 20107
KGNT 210535Z AUTO 25005KT 10SM CLR 12/06 A3024 RMK AO2 T01150057
KGNT 210515Z AUTO 25004KT 10SM CLR 12/06 A3023 RMK AO2 T01160060
KGNT 210455Z AUTO 27005KT 10SM CLR 12/08 A3023 RMK AO2 T01160075
KGNT 210435Z AUTO 29003KT 10SM CLR 11/08 A3022 RMK AO2 T01100080
KGNT 210415Z AUTO 00000KT 10SM CLR 11/07 A3021 RMK AO2 T01110074
KGNT 210355Z AUTO 00000KT 10SM CLR 14/07 A3021 RMK AO2 T01430072
KGNT 210335Z AUTO 00000KT 10SM CLR 14/07 A3020 RMK AO2 T01360066
KGNT 210315Z AUTO 00000KT 10SM CLR 16/06 A3019 RMK AO2 T01580064
KGNT 210255Z AUTO 35003KT 10SM CLR 15/08 A3018 RMK AO2 T01530076
KGNT 210235Z AUTO 33003KT 10SM CLR 15/08 A3017 RMK AO2 T01540079
KGNT 210215Z AUTO 33003KT 10SM CLR 16/08 A3016 RMK AO2 T01580080
KGNT 210155Z AUTO 00000KT 10SM CLR 16/08 A3015 RMK AO2 T01590082
KGNT 210135Z AUTO 30005KT 10SM CLR 16/09 A3014 RMK AO2 T01640086
KGNT 210115Z AUTO 32007KT 10SM CLR 18/08 A3014 RMK AO2 T01810077
KGNT 210055Z AUTO 34009KT 10SM CLR 21/06 A3012 RMK AO2 T02050056
KGNT 210035Z AUTO 35009KT 10SM CLR 22/05 A3012 RMK AO2 T02160046
KGNT 210015Z AUTO 34011KT 10SM CLR 22/04 A3011 RMK AO2 T02210043
KGNT 202355Z AUTO 33011KT 10SM CLR 22/04 A3011 RMK AO2 T02240038 10230 20186
KGNT 202335Z AUTO 33011G18KT 10SM CLR 23/04 A3011 RMK AO2 T02270038
KGNT 202315Z AUTO 34013G17KT 10SM CLR 23/04 A3011 RMK AO2 T02300044
KGNT 202255Z AUTO 34008G13KT 10SM CLR 23/04 A3010 RMK AO2 T02280040
KGNT 202235Z AUTO 34012G18KT 10SM CLR 23/05 A3010 RMK AO2 T02300045
KGNT 202215Z AUTO 33014G17KT 10SM CLR 23/05 A3010 RMK AO2 T02300048
KGNT 202155Z AUTO 33016G22KT 10SM CLR 23/04 A3010 RMK AO2 T02290042
KGNT 202135Z AUTO 35009G21KT 10SM CLR 23/05 A3011 RMK AO2 T02280050
KGNT 202115Z AUTO 35015G18KT 10SM CLR 23/04 A3011 RMK AO2 T02250040
KGNT 202055Z AUTO 34011G16KT 10SM CLR 22/04 A3011 RMK AO2 T02240041
KGNT 202035Z AUTO 32011G18KT 10SM CLR 22/04 A3012 RMK AO2 T02220043
KGNT 202015Z AUTO 35012G16KT 10SM CLR 22/04 A3012 RMK AO2 T02200044
KGNT 201955Z AUTO 35013KT 10SM CLR 22/05 A3012 RMK AO2 T02180047
KGNT 201935Z AUTO 35012G18KT 10SM CLR 22/04 A3012 RMK AO2 T02180043
KGNT 201915Z AUTO 34012KT 10SM SCT060 22/06 A3012 RMK AO2 T02160064
KGNT 201855Z AUTO 01011G18KT 10SM SCT047 SCT060 21/06 A3012 RMK AO2 T02130062
KGNT 201835Z AUTO 36008G14KT 10SM SCT047 21/10 A3014 RMK AO2 T02050101
KGNT 201815Z AUTO 32012G18KT 10SM SCT036 20/11 A3014 RMK AO2 T02000106
KGNT 201755Z AUTO 32003KT 10SM SCT034 19/11 A3015 RMK AO2 T01870111 10187 20120
KGNT 201735Z AUTO 32006KT 10SM CLR 18/11 A3015 RMK AO2 T01800111
KGNT 201715Z AUTO 33003KT 10SM CLR 17/11 A3015 RMK AO2 T01700105
KGNT 201655Z AUTO 33004KT 10SM CLR 17/10 A3015 RMK AO2 T01650100
KGNT 201635Z AUTO 00000KT 10SM CLR 16/10 A3015 RMK AO2 T01630103
KGNT 201615Z AUTO 34004KT 10SM CLR 16/11 A3015 RMK AO2 T01600110
KGNT 201555Z AUTO 34003KT 10SM CLR 15/11 A3015 RMK AO2 T01480113
KGNT 201535Z AUTO 32005KT 10SM CLR 14/11 A3015 RMK AO2 T01430113
KGNT 201515Z AUTO 34004KT 10SM CLR 14/11 A3014 RMK AO2 T01410109
KGNT 201455Z AUTO 34005KT 10SM CLR 14/11 A3014 RMK AO2 T01390110
KGNT 201435Z AUTO 32008KT 10SM CLR 14/11 A3014 RMK AO2 T01350106
KGNT 201415Z AUTO 34003KT 10SM CLR 13/11 A3013 RMK AO2 T01290107
KGNT 201355Z AUTO 29009G18KT 10SM CLR 13/10 A3012 RMK AO2 T01250103
KGNT 201335Z AUTO 29009G15KT 10SM SCT085 12/10 A3012 RMK AO2 T01230102
KGNT 201315Z AUTO 29010G16KT 10SM BKN085 BKN120 12/10 A3012 RMK AO2 T01220104
KGNT 201255Z AUTO 28008KT 10SM BKN075 BKN095 BKN120 12/11 A3011 RMK AO2 T01210106
KGNT 201235Z AUTO 28007KT 10SM -DZ BKN075 BKN095 OVC120 12/11 A3011 RMK AO2 T01210105
KGNT 201215Z AUTO 28008G18KT 10SM -DZ SCT085 BKN110 12/11 A3011 RMK AO2 T01210109
KGNT 201155Z AUTO 32012G15KT 10SM -RA OVC085 12/11 A3011 RMK AO2 P0001 60043 70056 T01200110 10140 20120
KGNT 201135Z AUTO 30010G18KT 10SM -RA OVC080 12/11 A3011 RMK AO2 P0001 T01200110
KGNT 201115Z AUTO 31009G16KT 10SM RA SCT065 OVC080 12/11 A3011 RMK AO2 T01210109
KGNT 201055Z AUTO 29009G15KT 10SM -RA SCT065 OVC075 12/11 A3012 RMK AO2 P0011 T01200109
KGNT 201035Z AUTO 29005G18KT 7SM RA BKN065 OVC075 12/11 A3012 RMK AO2 P0008 T01200109
KGNT 201015Z AUTO 28010G17KT 10SM RA OVC065 12/11 A3012 RMK AO2 P0003 T01210110
KGNT 200955Z AUTO 28009KT 10SM RA OVC065 12/11 A3012 RMK AO2 P0008 T01200114
KGNT 200935Z AUTO 30007KT 10SM -RA SCT027 OVC065 12/12 A3012 RMK AO2 P0004 T01200115
KGNT 200915Z AUTO 31009G17KT 10SM -RA SCT025 SCT035 OVC055 12/12 A3014 RMK AO2 P0003 T01210115
KGNT 200855Z AUTO 32004G16KT 7SM RA BKN060 OVC065 12/12 A3014 RMK AO2 P0010 60022 T01210115
KGNT 200835Z AUTO 33016G19KT 7SM RA SCT035 BKN047 OVC060 13/12 A3014 RMK AO2 P0006 T01250118
KGNT 200815Z AUTO 32015G18KT 7SM -RA SCT012 SCT028 OVC035 13/12 A3014 RMK AO2 P0003 T01260120
KGNT 200755Z AUTO 32009G16KT 5SM RA OVC014 13/12 A3014 RMK AO2 P0011 T01280120
KGNT 200735Z AUTO 32008KT 7SM RA BKN016 OVC025 13/12 A3015 RMK AO2 P0002 T01310119
KGNT 200715Z AUTO 34009G15KT 10SM RA OVC025 14/12 A3014 RMK AO2 T01350117
KGNT 200655Z AUTO 34007G15KT 10SM OVC025 14/12 A3014 RMK AO2 P0001 T01350118 402830117
KGNT 200635Z AUTO 33014KT 10SM DZ OVC021 14/12 A3015 RMK AO2 P0001 T01350117
KGNT 200615Z AUTO 32014G21KT 10SM RA SCT023 BKN046 OVC075 14/13 A3015 RMK AO2 P0001 T01390125
KGNT 200555Z AUTO 33013KT 10SM DZ OVC065 14/13 A3014 RMK AO2 P0001 60011 T01400126 10190 20140
KGNT 200535Z AUTO 31012G16KT 10SM RA BKN065 OVC085 14/13 A3015 RMK AO2 P0001 T01420129
KGNT 200515Z AUTO 30006KT 10SM -RA BKN070 OVC085 14/13 A3015 RMK AO2 P0001 T01430130
KGNT 200455Z AUTO 30007KT 10SM -RA SCT039 BKN049 OVC070 15/13 A3015 RMK AO2 P0006 T01450131
KGNT 200435Z AUTO 28008KT 7SM RA SCT036 BKN042 OVC050 15/13 A3016 RMK AO2 P0004 T01460133
KGNT 200415Z AUTO 28005G14KT 10SM RA BKN041 BKN065 OVC070 15/13 A3016 RMK AO2 T01480130
KGNT 200355Z AUTO 30011G18KT 10SM SCT038 BKN070 OVC085 15/13 A3015 RMK AO2 P0001 T01500128